createdAt,value
2018-04-02T00:02:12.288Z,101156.30
2018-04-02T00:04:38.317Z,101162.22
2018-04-02T00:07:04.320Z,101156.98
2018-04-02T00:09:30.356Z,101163.38
2018-04-02T00:11:56.492Z,101157.98
2018-04-02T00:14:22.549Z,101155.23
2018-04-02T09:51:05.577Z,100468.84
2018-04-02T09:53:31.675Z,100468.97
2018-04-02T09:55:57.858Z,100465.02
2018-04-02T09:58:24.178Z,100460.59
2018-04-02T10:00:50.415Z,100455.72
2018-04-02T10:03:16.592Z,100458.28
2018-04-02T10:05:42.618Z,100453.75
2018-04-02T10:08:08.720Z,100452.66
2018-04-02T10:10:34.985Z,100445.56
2018-04-02T10:13:01.998Z,100443.20
2018-04-02T10:15:28.340Z,100451.17
2018-04-02T10:17:54.439Z,100445.83
2018-04-02T10:20:20.531Z,100453.27
2018-04-02T10:22:46.792Z,100439.76
2018-04-02T10:25:12.879Z,100442.28
2018-04-02T10:27:38.881Z,100443.46
2018-04-02T10:30:04.910Z,100438.56
2018-04-02T10:32:30.934Z,100431.53
2018-04-02T10:34:57.010Z,100433.49
2018-04-02T10:37:23.027Z,100426.27
2018-04-02T10:39:49.254Z,100422.37
2018-04-02T10:42:15.582Z,100413.19
2018-04-02T10:44:41.940Z,100406.66
2018-04-02T10:47:08.078Z,100402.59
2018-04-02T10:49:34.251Z,100402.93
2018-04-02T10:52:00.337Z,100403.64
2018-04-02T10:54:26.363Z,100394.91
2018-04-02T10:56:52.443Z,100401.06
2018-04-02T10:59:18.670Z,100400.02
2018-04-02T11:01:44.733Z,100393.89
2018-04-02T11:04:10.805Z,100391.53
2018-04-02T11:06:36.881Z,100391.23
2018-04-02T11:09:02.986Z,100392.16
2018-04-02T11:11:29.024Z,100383.12
2018-04-02T11:13:55.074Z,100382.61
2018-04-02T11:16:21.161Z,100382.95
2018-04-02T11:18:47.208Z,100377.55
2018-04-02T11:21:13.368Z,100370.64
2018-04-02T11:23:39.601Z,100362.95
2018-04-02T11:26:05.683Z,100357.12
2018-04-02T11:28:31.776Z,100345.28
2018-04-02T11:30:57.968Z,100343.14
2018-04-02T11:33:24.104Z,100337.41
2018-04-02T11:35:50.660Z,100329.77
2018-04-02T11:38:17.127Z,100333.50
2018-04-02T11:40:43.306Z,100321.23
2018-04-02T11:43:09.348Z,100315.09
2018-04-02T11:45:35.360Z,100308.42
2018-04-02T11:48:01.408Z,100299.98
2018-04-02T11:50:27.583Z,100300.84
2018-04-02T11:52:53.769Z,100308.48
2018-04-02T11:55:19.827Z,100298.67
2018-04-02T11:57:45.922Z,100298.03
2018-04-02T12:00:12.072Z,100294.13
2018-04-02T12:02:38.249Z,100289.50
2018-04-02T12:05:04.362Z,100277.98
2018-04-02T12:07:30.397Z,100282.52
2018-04-02T12:09:56.475Z,100275.33
2018-04-02T12:12:22.553Z,100276.42
2018-04-02T12:14:48.628Z,100266.58
2018-04-02T12:17:14.661Z,100262.07
2018-04-02T12:19:40.705Z,100264.10
2018-04-02T12:22:06.799Z,100255.81
2018-04-02T12:24:32.807Z,100253.08
2018-04-02T12:26:58.879Z,100254.57
2018-04-02T12:29:24.894Z,100251.57
2018-04-02T12:31:50.976Z,100242.48
2018-04-02T12:34:17.000Z,100239.23
2018-04-02T12:36:43.009Z,100241.45
2018-04-02T12:39:09.089Z,100227.34
2018-04-02T12:41:35.160Z,100226.89
2018-04-02T12:44:01.182Z,100230.81
2018-04-02T12:46:27.231Z,100223.97
2018-04-02T12:48:53.273Z,100219.34
2018-04-02T12:51:19.354Z,100218.39
2018-04-02T12:53:52.407Z,100215.27
2018-04-02T12:56:18.474Z,100206.05
2018-04-02T12:58:44.487Z,100192.31
2018-04-02T13:01:10.526Z,100186.86
2018-04-02T13:03:36.605Z,100190.77
2018-04-02T13:06:02.657Z,100187.06
2018-04-02T13:08:28.658Z,100190.09
2018-04-02T13:10:54.797Z,100180.88
2018-04-02T13:13:20.825Z,100177.41
2018-04-02T13:15:46.937Z,100175.77
2018-04-02T13:18:12.995Z,100170.47
2018-04-02T13:20:38.996Z,100168.64
2018-04-02T13:23:05.044Z,100155.37
2018-04-02T13:25:31.472Z,100166.98
2018-04-02T13:27:57.655Z,100160.41
2018-04-02T13:30:23.796Z,100156.41
2018-04-02T13:32:49.983Z,100145.31
2018-04-02T13:35:15.981Z,100139.33
2018-04-02T13:37:42.068Z,100117.92
2018-04-02T13:40:08.795Z,100123.75
2018-04-02T13:42:34.808Z,100116.95
2018-04-02T13:45:00.849Z,100128.37
2018-04-02T13:47:26.898Z,100122.84
2018-04-02T13:49:52.906Z,100126.52
2018-04-02T13:52:18.935Z,100094.02
2018-04-02T13:54:45.147Z,100080.24
2018-04-02T13:57:11.132Z,100076.53
2018-04-02T13:59:37.215Z,100069.75
2018-04-02T14:02:03.284Z,100067.82
2018-04-02T14:04:29.296Z,100057.59
2018-04-02T14:06:55.363Z,100055.00
2018-04-02T14:09:21.501Z,100045.05
2018-04-02T14:11:47.513Z,100034.21
2018-04-02T14:14:13.546Z,100035.02
2018-04-02T14:16:39.637Z,100032.88
2018-04-02T14:19:05.773Z,100024.68
2018-04-02T14:21:32.043Z,100018.38
2018-04-02T14:23:58.066Z,100015.21
2018-04-02T14:26:24.105Z,100012.59
2018-04-02T14:28:50.237Z,100005.89
2018-04-02T14:31:16.307Z,100000.69
2018-04-02T14:33:42.325Z,99993.77
2018-04-02T14:36:08.385Z,99989.60
2018-04-02T14:38:34.559Z,99991.35
2018-04-02T14:41:00.602Z,99982.89
2018-04-02T14:43:26.630Z,99980.18
2018-04-02T14:45:52.668Z,99978.07
2018-04-02T14:48:18.743Z,99973.71
2018-04-02T14:50:44.850Z,99970.77
2018-04-02T14:53:10.910Z,99956.33
2018-04-02T14:55:36.935Z,99952.54
2018-04-02T14:58:02.923Z,99945.56
2018-04-02T15:00:29.004Z,99942.17
2018-04-02T15:02:55.026Z,99933.88
2018-04-02T15:05:21.090Z,99930.03
2018-04-02T15:07:47.145Z,99921.06
2018-04-02T15:10:13.207Z,99911.20
2018-04-02T15:12:39.222Z,99913.71
2018-04-02T15:15:05.257Z,99900.58
2018-04-02T15:17:31.263Z,99900.25
2018-04-02T15:19:57.327Z,99890.05
2018-04-02T15:22:23.492Z,99882.07
2018-04-02T15:24:49.517Z,99882.53
2018-04-02T15:27:15.535Z,99881.75
2018-04-02T15:29:41.597Z,99878.13
2018-04-02T15:32:07.662Z,99875.77
2018-04-02T15:34:33.690Z,99866.55
2018-04-02T15:36:59.682Z,99861.56
2018-04-02T15:39:25.930Z,99850.36
2018-04-02T15:41:52.087Z,99849.69
2018-04-02T15:44:18.213Z,99848.77
2018-04-02T15:46:44.218Z,99847.42
2018-04-02T15:49:10.304Z,99841.80
2018-04-02T15:51:36.382Z,99837.65
2018-04-02T15:54:02.414Z,99836.09
2018-04-02T15:56:28.480Z,99830.20
2018-04-02T15:58:54.524Z,99834.78
2018-04-02T16:01:20.632Z,99833.84
2018-04-02T16:03:46.716Z,99823.56
2018-04-02T16:06:12.762Z,99837.59
2018-04-02T16:08:38.821Z,99820.27
2018-04-02T16:11:04.868Z,99819.53
2018-04-02T16:13:30.927Z,99819.31
2018-04-02T16:15:56.968Z,99810.98
2018-04-02T16:18:23.063Z,99808.42
2018-04-02T16:20:49.094Z,99808.80
2018-04-02T16:23:15.213Z,99807.75
2018-04-02T16:25:41.236Z,99799.17
2018-04-02T16:28:07.898Z,99800.73
2018-04-02T16:30:33.914Z,99794.63
2018-04-02T16:33:00.296Z,99792.73
2018-04-02T16:35:26.350Z,99792.02
2018-04-02T16:37:52.355Z,99790.24
2018-04-02T16:40:18.468Z,99781.77
2018-04-02T16:42:44.566Z,99778.64
2018-04-02T16:45:10.717Z,99775.82
2018-04-02T16:47:36.731Z,99781.50
2018-04-02T16:50:02.809Z,99774.45
2018-04-02T16:52:28.846Z,99773.60
2018-04-02T16:54:54.868Z,99777.41
2018-04-02T16:57:20.912Z,99776.31
2018-04-02T16:59:46.954Z,99766.47
2018-04-02T17:02:13.037Z,99770.84
2018-04-02T17:04:39.093Z,99771.74
2018-04-02T17:07:05.180Z,99771.75
2018-04-02T17:09:31.187Z,99768.20
2018-04-02T17:11:57.312Z,99758.27
2018-04-02T17:14:23.350Z,99763.88
2018-04-02T17:16:49.421Z,99754.41
2018-04-02T17:19:15.457Z,99760.02
2018-04-02T17:21:41.542Z,99763.69
2018-04-02T17:24:07.558Z,99760.98
2018-04-02T17:26:33.585Z,99757.73
2018-04-02T17:28:59.570Z,99756.01
2018-04-02T17:31:25.648Z,99761.69
2018-04-02T17:33:51.821Z,99757.92
2018-04-02T17:36:17.956Z,99762.83
2018-04-02T17:38:44.068Z,99756.01
2018-04-02T17:41:10.116Z,99756.07
2018-04-02T17:43:36.287Z,99754.64
2018-04-02T17:46:02.376Z,99752.17
2018-04-02T17:48:28.420Z,99764.79
2018-04-02T17:50:54.435Z,99756.72
2018-04-02T17:53:20.607Z,99753.61
2018-04-02T17:55:46.655Z,99757.88
2018-04-02T17:58:12.686Z,99754.30
2018-04-02T18:00:38.766Z,99759.52
2018-04-02T18:03:05.227Z,99745.64
2018-04-02T18:05:31.271Z,99759.11
2018-04-02T18:07:57.308Z,99759.30
2018-04-02T18:10:23.354Z,99760.48
2018-04-02T18:12:49.534Z,99766.25
2018-04-02T18:15:15.734Z,99771.82
2018-04-02T18:17:41.802Z,99774.31
2018-04-02T18:20:07.823Z,99786.31
2018-04-02T18:22:33.983Z,99784.12
2018-04-02T18:25:00.558Z,99792.52
2018-04-02T18:27:26.658Z,99789.39
2018-04-02T18:29:52.692Z,99787.59
2018-04-02T18:32:18.768Z,99792.38
2018-04-02T18:34:44.904Z,99781.49
2018-04-02T18:37:10.992Z,99775.69
2018-04-02T18:39:37.059Z,99775.18
2018-04-02T18:42:03.079Z,99772.42
2018-04-02T18:44:29.162Z,99773.76
2018-04-02T18:46:55.251Z,99776.45
2018-04-02T18:49:21.299Z,99778.35
2018-04-02T18:51:47.341Z,99774.77
2018-04-02T18:54:13.374Z,99779.03
2018-04-02T18:56:39.452Z,99777.61
2018-04-02T18:59:05.510Z,99777.05
2018-04-02T19:01:31.628Z,99775.71
2018-04-02T19:03:57.633Z,99779.06
2018-04-02T19:06:24.542Z,99783.56
2018-04-02T19:08:50.646Z,99786.09
2018-04-02T19:11:16.728Z,99779.74
2018-04-02T19:13:42.790Z,99781.40
2018-04-02T19:16:08.846Z,99781.73
2018-04-02T19:18:34.866Z,99779.92
2018-04-02T19:21:01.237Z,99782.44
2018-04-02T19:23:27.315Z,99787.86
2018-04-02T19:25:53.340Z,99786.77
2018-04-02T19:28:19.455Z,99788.19
2018-04-02T19:30:45.472Z,99786.70
2018-04-02T19:33:11.592Z,99794.20
2018-04-02T19:35:37.718Z,99789.88
2018-04-02T19:38:03.779Z,99793.38
2018-04-02T19:40:29.852Z,99789.94
2018-04-02T19:42:55.965Z,99786.02
2018-04-02T19:45:22.079Z,99782.76
2018-04-02T19:47:48.223Z,99791.86
2018-04-02T19:50:14.322Z,99785.95
2018-04-02T19:52:40.470Z,99779.55
2018-04-02T19:55:06.525Z,99783.99
2018-04-02T19:57:32.660Z,99778.75
2018-04-02T19:59:58.741Z,99772.49
2018-04-02T20:02:24.795Z,99776.58
2018-04-02T20:04:50.834Z,99766.00
2018-04-02T20:07:16.882Z,99771.16
2018-04-02T20:09:42.985Z,99770.89
2018-04-02T20:12:09.051Z,99774.68
2018-04-02T20:14:35.117Z,99769.45
2018-04-02T20:17:01.204Z,99762.88
2018-04-02T20:19:28.268Z,99765.69
2018-04-02T20:21:54.427Z,99760.53
2018-04-02T20:24:20.461Z,99758.55
2018-04-02T20:26:46.559Z,99758.55
2018-04-02T20:29:12.868Z,99749.73
2018-04-02T20:31:38.975Z,99750.33
2018-04-02T20:34:05.026Z,99746.91
2018-04-02T20:36:31.067Z,99751.00
2018-04-02T20:38:57.133Z,99744.25
2018-04-02T20:41:30.304Z,99741.84
2018-04-02T20:43:56.402Z,99738.17
2018-04-02T20:46:22.618Z,99736.27
2018-04-02T20:48:48.729Z,99737.52
2018-04-02T20:51:14.846Z,99734.72
2018-04-02T20:53:40.909Z,99736.58
2018-04-02T20:56:06.953Z,99731.46
2018-04-02T20:58:33.072Z,99730.45
2018-04-02T21:00:59.253Z,99733.89
2018-04-02T21:03:25.273Z,99725.56
2018-04-02T21:05:51.498Z,99731.48
2018-04-02T21:08:17.564Z,99734.39
2018-04-02T21:10:43.602Z,99738.72
2018-04-02T21:13:09.699Z,99731.66
2018-04-02T21:15:35.927Z,99736.81
2018-04-02T21:18:02.064Z,99740.84
2018-04-02T21:20:28.078Z,99735.24
2018-04-02T21:22:54.199Z,99733.58
2018-04-02T21:25:20.306Z,99741.69
2018-04-02T21:27:46.572Z,99735.36
2018-04-02T21:30:12.650Z,99727.53
2018-04-02T21:32:38.690Z,99729.10
2018-04-02T21:35:04.723Z,99736.71
2018-04-02T21:37:30.812Z,99729.72
2018-04-02T21:39:57.113Z,99730.81
2018-04-02T21:42:23.288Z,99730.48
2018-04-02T21:44:49.300Z,99726.48
2018-04-02T21:47:15.312Z,99729.22
2018-04-02T21:49:41.330Z,99723.97
2018-04-02T21:52:07.386Z,99727.64
2018-04-02T21:54:33.437Z,99728.86
2018-04-02T21:56:59.609Z,99724.25
2018-04-02T21:59:25.644Z,99723.64
2018-04-02T22:01:51.735Z,99728.38
2018-04-02T22:04:17.940Z,99729.23
2018-04-02T22:06:56.219Z,99729.63
2018-04-02T22:09:22.282Z,99725.19
2018-04-02T22:11:48.575Z,99725.77
2018-04-02T22:14:14.638Z,99727.88
2018-04-02T22:16:40.678Z,99724.88
2018-04-02T22:19:06.814Z,99724.17
2018-04-02T22:21:32.920Z,99727.77
2018-04-02T22:23:58.957Z,99728.17
2018-04-02T22:26:25.011Z,99723.47
2018-04-02T22:28:51.053Z,99725.21
2018-04-02T22:31:17.095Z,99722.64
2018-04-02T22:33:43.153Z,99716.71
2018-04-02T22:36:09.261Z,99722.88
2018-04-02T22:38:35.388Z,99719.37
2018-04-02T22:41:01.450Z,99722.49
2018-04-02T22:43:28.017Z,99715.41
2018-04-02T22:45:54.622Z,99722.19
2018-04-02T22:48:20.718Z,99717.63
2018-04-02T22:50:46.837Z,99716.74
2018-04-02T22:53:12.903Z,99717.30
2018-04-02T22:55:38.918Z,99715.11
2018-04-02T22:58:04.983Z,99723.53
2018-04-02T23:00:31.048Z,99713.19
2018-04-02T23:02:57.097Z,99719.41
2018-04-02T23:05:23.168Z,99719.30
2018-04-02T23:07:49.219Z,99712.86
2018-04-02T23:10:15.253Z,99719.95
2018-04-02T23:12:41.312Z,99712.18
2018-04-02T23:15:07.354Z,99714.20
2018-04-02T23:17:33.443Z,99709.13
2018-04-02T23:19:59.535Z,99715.05
2018-04-02T23:22:37.886Z,99712.17
2018-04-02T23:25:04.048Z,99707.66
2018-04-02T23:27:30.254Z,99713.89
2018-04-02T23:29:56.261Z,99706.71
2018-04-02T23:32:22.405Z,99698.05
2018-04-02T23:34:48.581Z,99701.58
2018-04-02T23:37:14.677Z,99702.58
2018-04-02T23:39:40.730Z,99709.11
2018-04-02T23:42:06.722Z,99706.86
2018-04-02T23:44:32.834Z,99708.06
2018-04-02T23:46:58.925Z,99713.50
2018-04-02T23:49:24.969Z,99711.24
2018-04-02T23:51:50.967Z,99712.81
2018-04-02T23:54:17.031Z,99716.08
2018-04-02T23:56:43.133Z,99712.34
2018-04-02T23:59:09.199Z,99714.83
